Time;durP1;ratioP1;P1;durP2;ratioP2;P2;SDS_P1;SDS_P2;PMS_P1;PMS_P2;Temp;Humidity;BMP_temperature;BMP_pressure;BME280_temperature;BME280_humidity;BME280_pressure;Samples;Min_cycle;Max_cycle;Signal;HPM_P1;HPM_P2
2021/05/06 00:01:24;;;;;;;9.57;3.20;;;4.40;99.90;;;;;;4946728;29;20192;-82
2021/05/06 00:34:11;;;;;;;10.32;3.28;;;4.40;99.90;;;;;;4994434;28;20197;-85
2021/05/06 00:36:38;;;;;;;9.60;2.90;;;4.30;99.90;;;;;;4967238;29;20234;-83
2021/05/06 00:39:09;;;;;;;8.93;3.13;;;4.30;99.90;;;;;;4978573;28;20299;-83
2021/05/06 00:41:42;;;;;;;7.80;3.30;;;4.30;99.90;;;;;;4962837;29;20412;-84
2021/05/06 00:44:41;;;;;;;8.82;2.90;;;4.30;99.90;;;;;;4961988;28;20199;-82
2021/05/06 00:55:55;;;;;;;11.00;3.72;;;4.30;99.90;;;;;;4963452;29;20257;-85
2021/05/06 01:04:19;;;;;;;8.85;3.47;;;4.20;99.90;;;;;;4968255;28;20223;-86
2021/05/06 01:06:56;;;;;;;7.70;3.58;;;4.20;99.90;;;;;;4956482;29;20213;-85
2021/05/06 01:09:27;;;;;;;13.75;3.53;;;4.30;99.90;;;;;;4961091;29;20764;-83
2021/05/06 01:11:57;;;;;;;8.82;2.80;;;4.30;99.90;;;;;;4978752;28;20195;-82
2021/05/06 01:14:25;;;;;;;9.40;2.85;;;4.40;99.90;;;;;;4963934;28;20332;-82
2021/05/06 01:17:14;;;;;;;10.85;3.30;;;4.30;99.90;;;;;;4961991;29;20282;-83
2021/05/06 01:19:41;;;;;;;7.38;2.65;;;4.20;99.90;;;;;;4959447;29;20223;-82
2021/05/06 01:22:09;;;;;;;6.88;3.53;;;4.30;99.90;;;;;;4960511;29;20219;-81
2021/05/06 01:24:36;;;;;;;5.40;3.17;;;4.30;99.90;;;;;;4959625;28;20547;-82
2021/05/06 01:27:07;;;;;;;8.05;2.63;;;4.10;99.90;;;;;;4976063;28;20202;-83
2021/05/06 01:29:38;;;;;;;7.05;3.08;;;4.10;99.90;;;;;;4959564;29;20202;-81
2021/05/06 01:32:16;;;;;;;6.35;3.42;;;4.10;99.90;;;;;;4960979;29;20682;-81
2021/05/06 01:34:47;;;;;;;3.55;2.22;;;4.10;99.90;;;;;;4959801;28;20304;-82
2021/05/06 01:37:19;;;;;;;8.93;3.55;;;3.90;99.90;;;;;;4957324;29;20218;-81
2021/05/06 01:40:02;;;;;;;9.10;4.90;;;3.90;99.90;;;;;;4959736;29;20205;-83
2021/05/06 01:42:37;;;;;;;8.27;4.72;;;3.90;99.90;;;;;;4954021;29;20218;-81
2021/05/06 01:48:15;;;;;;;6.45;2.75;;;4.00;99.90;;;;;;4960009;29;20209;-82
2021/05/06 01:59:08;;;;;;;7.72;3.53;;;4.00;99.90;;;;;;4943183;29;20198;-81
2021/05/06 02:01:35;;;;;;;6.43;3.60;;;4.10;99.90;;;;;;4971737;28;20218;-84
2021/05/06 02:04:03;;;;;;;5.25;3.20;;;4.20;99.90;;;;;;4956506;28;20298;-81
2021/05/06 02:06:30;;;;;;;5.47;2.97;;;4.00;99.90;;;;;;4943178;29;20253;-81
2021/05/06 02:08:58;;;;;;;7.63;3.25;;;4.00;99.90;;;;;;4959119;29;20218;-80
2021/05/06 02:11:25;;;;;;;11.30;3.08;;;4.00;99.90;;;;;;4962295;28;20194;-82
2021/05/06 02:14:07;;;;;;;11.40;3.08;;;4.00;99.90;;;;;;4960184;28;20270;-85
2021/05/06 02:16:39;;;;;;;4.20;3.13;;;4.00;99.90;;;;;;4961743;28;20203;-83
2021/05/06 02:19:09;;;;;;;7.75;3.00;;;4.10;99.90;;;;;;4959973;29;20234;-83
2021/05/06 02:21:38;;;;;;;13.90;4.70;;;4.30;99.90;;;;;;4958931;29;20640;-82
2021/05/06 02:24:07;;;;;;;2.63;2.42;;;4.20;99.90;;;;;;4958207;28;20206;-82
2021/05/06 02:26:34;;;;;;;8.55;3.25;;;4.30;99.90;;;;;;4955581;29;20207;-84
2021/05/06 02:29:02;;;;;;;8.18;4.93;;;4.30;99.90;;;;;;4957570;29;20194;-81
2021/05/06 02:31:29;;;;;;;10.55;4.38;;;4.40;99.90;;;;;;4957600;29;20218;-85
2021/05/06 02:33:56;;;;;;;9.35;3.10;;;4.30;99.90;;;;;;4958210;29;20373;-82
2021/05/06 02:36:23;;;;;;;6.05;3.58;;;4.40;99.90;;;;;;4958586;28;20313;-82
2021/05/06 02:38:50;;;;;;;8.15;2.80;;;4.40;99.90;;;;;;4958781;29;20202;-85
2021/05/06 02:41:17;;;;;;;7.75;3.65;;;4.50;99.90;;;;;;4960327;29;20250;-86
2021/05/06 02:43:44;;;;;;;8.18;3.20;;;4.40;99.90;;;;;;4975931;28;20254;-88
2021/05/06 02:46:11;;;;;;;10.70;4.15;;;4.40;99.90;;;;;;4976471;28;20233;-87
2021/05/06 02:48:38;;;;;;;4.70;3.70;;;4.50;99.90;;;;;;4976502;28;20186;-85
2021/05/06 02:51:05;;;;;;;9.60;3.03;;;4.50;99.90;;;;;;4976741;28;20190;-88
2021/05/06 02:53:36;;;;;;;9.35;4.28;;;4.70;99.90;;;;;;4992142;28;20191;-86
2021/05/06 02:56:09;;;;;;;10.55;4.20;;;4.60;99.90;;;;;;4976739;28;20222;-87
2021/05/06 02:58:52;;;;;;;6.55;3.88;;;4.60;99.90;;;;;;4974630;29;20218;-82
2021/05/06 03:04:05;;;;;;;7.97;2.92;;;4.60;99.90;;;;;;4960743;29;20211;-84
2021/05/06 03:06:35;;;;;;;8.52;3.28;;;4.60;99.90;;;;;;4976881;28;20221;-89
2021/05/06 03:09:10;;;;;;;9.25;4.05;;;4.70;99.90;;;;;;4976600;28;20178;-87
2021/05/06 03:11:42;;;;;;;6.20;3.03;;;4.70;99.90;;;;;;4976389;28;20291;-85
2021/05/06 03:14:28;;;;;;;10.38;3.78;;;4.70;99.90;;;;;;4982993;28;20210;-84
2021/05/06 03:22:43;;;;;;;8.55;3.63;;;4.70;99.90;;;;;;4964392;29;20797;-83
2021/05/06 03:25:13;;;;;;;5.38;3.55;;;4.70;99.90;;;;;;4955602;28;20225;-84
2021/05/06 03:27:46;;;;;;;4.47;3.05;;;4.80;99.90;;;;;;4954050;28;20286;-80
2021/05/06 03:30:34;;;;;;;7.07;4.22;;;4.70;99.90;;;;;;4961965;28;20198;-81
2021/05/06 03:35:59;;;;;;;5.07;4.00;;;4.70;99.90;;;;;;4962519;28;20222;-81
2021/05/06 03:44:06;;;;;;;9.77;4.85;;;4.80;99.90;;;;;;4962163;28;20201;-82
2021/05/06 03:49:36;;;;;;;7.78;4.22;;;4.80;99.90;;;;;;4963614;28;20570;-81
2021/05/06 04:16:57;;;;;;;11.40;5.65;;;4.90;99.90;;;;;;4972424;29;20241;-80
2021/05/06 04:22:26;;;;;;;11.25;5.78;;;4.90;99.90;;;;;;4964693;28;20698;-81
2021/05/06 04:27:46;;;;;;;7.53;6.22;;;5.10;99.90;;;;;;4963066;29;20209;-81
2021/05/06 04:30:32;;;;;;;9.82;6.47;;;5.10;99.90;;;;;;4962046;29;20202;-81
2021/05/06 04:35:47;;;;;;;9.93;6.25;;;5.10;99.90;;;;;;4962600;28;20219;-82
2021/05/06 04:38:16;;;;;;;11.95;7.70;;;5.30;99.90;;;;;;4971782;28;20232;-82
2021/05/06 04:41:14;;;;;;;13.20;7.78;;;5.30;99.90;;;;;;4979041;28;20254;-82
2021/05/06 04:55:03;;;;;;;13.45;10.55;;;4.90;99.90;;;;;;4994278;22;20234;-80
2021/05/06 04:58:01;;;;;;;22.33;13.30;;;4.90;99.90;;;;;;5043124;28;20195;-84
2021/05/06 05:03:36;;;;;;;12.20;10.48;;;4.90;99.90;;;;;;5040889;28;20235;-82
2021/05/06 05:06:03;;;;;;;13.50;10.88;;;5.10;99.90;;;;;;5042760;28;20283;-82
2021/05/06 05:08:35;;;;;;;15.85;11.85;;;5.20;99.90;;;;;;5044021;28;20219;-84
2021/05/06 05:11:19;;;;;;;15.57;14.00;;;5.20;99.90;;;;;;5038790;28;20179;-81
2021/05/06 05:14:00;;;;;;;14.63;12.63;;;5.10;99.90;;;;;;5042529;28;20612;-84
2021/05/06 05:19:39;;;;;;;16.38;12.98;;;5.10;99.90;;;;;;5022885;28;20196;-82
2021/05/06 05:24:58;;;;;;;16.92;12.02;;;5.10;99.90;;;;;;5032737;28;20218;-82
2021/05/06 05:27:25;;;;;;;14.85;12.55;;;5.20;99.90;;;;;;5040748;28;20188;-82
2021/05/06 05:29:52;;;;;;;17.83;11.40;;;5.20;99.90;;;;;;5042261;28;20203;-83
2021/05/06 05:32:19;;;;;;;12.95;11.38;;;5.10;99.90;;;;;;5042570;28;20571;-83
2021/05/06 05:34:53;;;;;;;18.38;13.50;;;5.10;99.90;;;;;;5040635;28;20227;-83
2021/05/06 05:37:21;;;;;;;13.80;12.27;;;5.20;99.90;;;;;;5026514;28;20366;-82
2021/05/06 05:40:02;;;;;;;20.45;16.83;;;5.10;99.90;;;;;;5026043;28;20196;-84
2021/05/06 05:42:40;;;;;;;14.07;11.98;;;5.10;99.90;;;;;;5027235;28;20215;-82
2021/05/06 05:48:41;;;;;;;15.30;12.70;;;4.90;99.90;;;;;;5044670;28;20200;-81
2021/05/06 05:56:34;;;;;;;16.15;13.75;;;5.00;99.90;;;;;;5043250;28;20219;-83
2021/05/06 05:59:01;;;;;;;15.40;13.85;;;5.00;99.90;;;;;;5041400;28;20204;-81
2021/05/06 06:01:29;;;;;;;18.05;14.93;;;4.80;99.90;;;;;;5040595;28;20216;-82
2021/05/06 06:03:56;;;;;;;17.95;16.25;;;4.70;99.90;;;;;;5023102;28;20207;-83
2021/05/06 06:06:23;;;;;;;15.07;13.57;;;4.80;99.90;;;;;;5032576;28;20220;-84
2021/05/06 06:08:50;;;;;;;17.23;14.13;;;4.80;99.90;;;;;;5040684;28;20299;-83
2021/05/06 06:11:17;;;;;;;17.95;14.18;;;4.90;99.90;;;;;;5039592;28;20218;-82
2021/05/06 06:13:47;;;;;;;16.25;14.30;;;5.00;99.90;;;;;;5038253;28;20675;-82
2021/05/06 06:16:22;;;;;;;16.52;14.85;;;4.80;99.90;;;;;;5019886;28;20227;-82
2021/05/06 06:18:51;;;;;;;16.23;14.63;;;4.80;99.90;;;;;;5037459;28;20186;-82
2021/05/06 06:21:21;;;;;;;18.33;15.73;;;4.80;99.90;;;;;;5001596;28;20219;-82
2021/05/06 06:23:48;;;;;;;17.90;13.65;;;5.00;99.90;;;;;;5035860;28;20207;-80
2021/05/06 06:26:15;;;;;;;15.73;13.52;;;5.00;99.90;;;;;;5018158;28;20212;-82
2021/05/06 06:28:43;;;;;;;15.75;14.25;;;5.20;99.90;;;;;;5035871;28;20218;-84
2021/05/06 06:31:15;;;;;;;15.43;13.75;;;5.30;99.90;;;;;;5039396;28;20204;-83
2021/05/06 06:33:43;;;;;;;14.32;12.88;;;5.20;99.90;;;;;;5022315;28;20192;-82
2021/05/06 06:36:10;;;;;;;15.68;14.07;;;5.10;99.90;;;;;;5027466;28;20316;-83
2021/05/06 06:38:37;;;;;;;14.38;12.80;;;4.90;99.90;;;;;;5030148;28;20195;-82
2021/05/06 06:41:08;;;;;;;16.17;14.45;;;4.80;99.90;;;;;;5031047;28;20204;-83
2021/05/06 06:43:35;;;;;;;16.80;15.00;;;4.80;99.90;;;;;;5047378;28;20215;-82
2021/05/06 06:46:01;;;;;;;15.88;13.13;;;4.90;99.90;;;;;;5014105;28;20223;-83
2021/05/06 06:48:28;;;;;;;15.90;14.02;;;5.00;99.90;;;;;;5029645;28;20259;-85
2021/05/06 06:50:56;;;;;;;13.45;12.20;;;4.90;99.90;;;;;;5045111;28;20203;-81
2021/05/06 06:53:22;;;;;;;12.38;11.18;;;5.00;99.90;;;;;;5027641;28;20192;-82
2021/05/06 06:55:49;;;;;;;12.05;10.95;;;5.20;99.90;;;;;;5026656;28;20281;-83
2021/05/06 06:58:17;;;;;;;12.05;11.00;;;5.30;99.90;;;;;;5006683;28;20200;-81
2021/05/06 07:00:45;;;;;;;15.38;13.88;;;4.90;99.90;;;;;;5021416;28;20200;-81
2021/05/06 07:03:12;;;;;;;15.27;13.88;;;4.70;99.90;;;;;;5036998;28;20216;-81
2021/05/06 07:05:41;;;;;;;11.48;10.40;;;4.70;99.90;;;;;;5036928;28;20220;-80
2021/05/06 07:08:13;;;;;;;12.40;11.30;;;4.80;99.90;;;;;;5013101;28;20200;-80
2021/05/06 07:10:41;;;;;;;9.57;8.82;;;4.90;99.90;;;;;;5029583;28;20228;-83
2021/05/06 07:13:08;;;;;;;9.00;8.07;;;4.80;99.90;;;;;;5050249;28;20219;-83
2021/05/06 07:15:34;;;;;;;9.45;8.57;;;4.60;99.90;;;;;;5051651;28;20224;-83
2021/05/06 07:18:01;;;;;;;10.85;9.50;;;4.70;99.90;;;;;;5050996;28;20215;-83
2021/05/06 07:20:29;;;;;;;9.05;8.18;;;4.60;99.90;;;;;;5051333;28;20200;-82
2021/05/06 07:22:56;;;;;;;9.57;8.77;;;4.60;99.90;;;;;;5052488;28;20718;-81
2021/05/06 07:25:23;;;;;;;9.75;8.95;;;4.70;99.90;;;;;;5033242;28;20220;-82
2021/05/06 07:27:50;;;;;;;8.70;7.93;;;4.60;99.90;;;;;;5034257;28;20429;-81
2021/05/06 07:30:19;;;;;;;7.82;7.20;;;4.60;99.90;;;;;;5020463;28;20216;-82
2021/05/06 07:32:46;;;;;;;8.52;7.82;;;4.70;99.90;;;;;;5032096;28;20200;-82
2021/05/06 07:35:13;;;;;;;7.35;6.75;;;4.70;99.90;;;;;;5048074;28;20212;-82
2021/05/06 07:37:40;;;;;;;7.15;6.55;;;4.70;99.90;;;;;;5043591;28;20261;-82
2021/05/06 07:40:09;;;;;;;5.65;5.25;;;4.70;99.90;;;;;;5024726;28;20204;-82
2021/05/06 07:42:36;;;;;;;6.90;6.40;;;4.70;99.90;;;;;;5012070;28;20219;-81
2021/05/06 07:45:04;;;;;;;7.30;6.70;;;4.70;99.90;;;;;;5029217;28;20228;-80
2021/05/06 07:47:30;;;;;;;7.78;6.32;;;4.90;99.90;;;;;;5042181;28;20196;-81
2021/05/06 07:49:57;;;;;;;5.53;5.13;;;5.30;99.90;;;;;;5045567;28;20199;-81
2021/05/06 07:52:26;;;;;;;4.63;4.22;;;5.40;99.90;;;;;;5041161;28;20690;-78
2021/05/06 07:54:55;;;;;;;5.50;5.10;;;5.50;99.90;;;;;;5032389;28;20254;-81
2021/05/06 07:57:21;;;;;;;3.88;3.67;;;5.60;99.90;;;;;;5035429;28;20339;-80
2021/05/06 07:59:49;;;;;;;3.95;3.75;;;5.70;99.90;;;;;;5046315;28;20231;-82
2021/05/06 08:02:16;;;;;;;3.92;3.67;;;5.50;99.90;;;;;;5030387;28;20230;-81
2021/05/06 08:04:43;;;;;;;3.50;3.30;;;5.70;99.90;;;;;;5044602;28;20212;-80
2021/05/06 08:07:09;;;;;;;5.28;4.78;;;5.90;99.90;;;;;;5041719;28;20687;-80
2021/05/06 08:09:36;;;;;;;7.80;7.18;;;6.00;99.90;;;;;;5043007;28;20197;-80
2021/05/06 08:12:03;;;;;;;8.02;7.40;;;6.20;99.90;;;;;;5041935;28;20676;-80
2021/05/06 08:14:30;;;;;;;5.47;5.05;;;6.50;99.90;;;;;;5024459;28;20219;-80
2021/05/06 08:16:57;;;;;;;7.50;6.90;;;6.70;99.90;;;;;;5024374;28;20204;-80
2021/05/06 08:19:24;;;;;;;6.72;6.22;;;7.00;99.90;;;;;;5041407;28;20260;-81
2021/05/06 08:21:50;;;;;;;7.70;7.07;;;6.80;99.90;;;;;;5018216;28;20210;-80
2021/05/06 08:24:17;;;;;;;8.75;8.15;;;6.50;99.90;;;;;;5038278;28;20224;-81
2021/05/06 08:26:44;;;;;;;8.60;7.80;;;6.60;99.90;;;;;;5040410;28;20220;-82
2021/05/06 08:29:11;;;;;;;6.47;5.97;;;7.10;99.90;;;;;;5040125;28;20207;-80
2021/05/06 08:31:37;;;;;;;5.65;5.25;;;7.30;99.90;;;;;;5036128;28;20195;-79
2021/05/06 08:34:05;;;;;;;5.75;5.35;;;7.10;99.90;;;;;;5016615;28;20202;-80
2021/05/06 08:36:32;;;;;;;5.45;4.95;;;7.00;99.90;;;;;;5037283;28;20248;-80
2021/05/06 08:38:59;;;;;;;6.85;6.35;;;7.10;99.90;;;;;;5036923;28;20192;-80
2021/05/06 08:41:26;;;;;;;7.25;5.28;;;7.30;99.90;;;;;;5017276;28;20274;-81
2021/05/06 08:43:56;;;;;;;6.43;5.82;;;7.30;99.90;;;;;;5021247;28;20207;-80
2021/05/06 08:46:31;;;;;;;7.15;5.47;;;7.50;99.90;;;;;;5034681;28;20601;-80
2021/05/06 08:48:58;;;;;;;5.40;4.93;;;7.50;99.90;;;;;;5038264;28;20242;-78
2021/05/06 08:51:25;;;;;;;5.82;5.30;;;7.60;99.90;;;;;;5031975;28;20187;-80
2021/05/06 08:53:52;;;;;;;5.82;5.18;;;7.80;99.90;;;;;;5036872;28;20199;-79
2021/05/06 08:56:19;;;;;;;4.80;4.40;;;8.20;99.90;;;;;;5027517;28;20228;-80
2021/05/06 08:58:45;;;;;;;5.95;5.30;;;8.30;99.90;;;;;;5029195;28;20251;-80
2021/05/06 09:01:12;;;;;;;4.97;4.47;;;8.20;99.90;;;;;;5025825;28;20206;-78
2021/05/06 09:03:39;;;;;;;5.80;5.30;;;8.30;99.90;;;;;;5027412;28;20207;-78
2021/05/06 09:06:16;;;;;;;6.00;5.38;;;8.20;99.90;;;;;;5029467;28;20208;-80
2021/05/06 09:08:45;;;;;;;5.10;4.63;;;8.60;99.90;;;;;;5038824;28;20199;-79
2021/05/06 09:11:12;;;;;;;5.80;5.07;;;8.70;99.90;;;;;;5019315;28;20283;-80
2021/05/06 09:13:39;;;;;;;6.72;4.03;;;8.70;99.90;;;;;;5039060;28;20196;-80
2021/05/06 09:16:06;;;;;;;4.40;4.00;;;8.70;99.90;;;;;;5036688;28;20251;-78
2021/05/06 09:18:38;;;;;;;5.93;5.25;;;8.70;99.90;;;;;;5029013;28;20453;-78
2021/05/06 09:21:06;;;;;;;7.95;4.93;;;8.30;99.90;;;;;;5037591;28;20242;-80
2021/05/06 09:23:33;;;;;;;12.95;5.07;;;8.20;99.90;;;;;;5037120;28;20220;-80
2021/05/06 09:26:06;;;;;;;6.03;4.93;;;8.00;99.90;;;;;;5033962;28;20302;-80
2021/05/06 09:28:34;;;;;;;5.68;5.05;;;8.40;99.90;;;;;;5035786;28;20210;-77
2021/05/06 09:31:03;;;;;;;5.75;5.15;;;8.50;99.90;;;;;;5004065;28;20682;-79
2021/05/06 09:33:33;;;;;;;5.93;5.32;;;8.50;99.90;;;;;;5012622;28;20212;-79
2021/05/06 09:36:09;;;;;;;17.17;12.57;;;8.70;99.90;;;;;;5037199;28;20219;-80
2021/05/06 09:38:38;;;;;;;5.28;4.50;;;9.20;99.90;;;;;;5038270;28;20223;-79
2021/05/06 09:41:06;;;;;;;4.68;4.15;;;9.40;99.90;;;;;;5040037;28;20187;-83
2021/05/06 09:43:39;;;;;;;6.28;3.60;;;9.80;99.90;;;;;;5019470;28;20280;-81
2021/05/06 09:46:24;;;;;;;4.60;4.18;;;10.00;99.90;;;;;;5021352;28;20245;-82
2021/05/06 09:48:58;;;;;;;6.10;4.75;;;10.20;99.90;;;;;;5038906;28;20192;-78
2021/05/06 09:51:33;;;;;;;7.18;5.90;;;9.90;99.90;;;;;;5033502;28;20235;-78
2021/05/06 09:54:00;;;;;;;6.07;4.60;;;9.70;99.90;;;;;;5031733;28;20194;-80
2021/05/06 09:56:28;;;;;;;5.03;4.43;;;9.90;99.90;;;;;;5041923;28;20269;-79
2021/05/06 09:58:55;;;;;;;5.55;3.50;;;10.00;99.90;;;;;;5022871;28;20208;-80
2021/05/06 10:01:23;;;;;;;7.38;3.90;;;10.10;99.90;;;;;;5041982;28;20203;-80
2021/05/06 10:03:50;;;;;;;5.25;4.15;;;10.10;99.90;;;;;;5024353;28;20220;-82
2021/05/06 10:06:20;;;;;;;4.78;3.63;;;10.40;99.90;;;;;;5029669;28;20243;-80
2021/05/06 10:08:47;;;;;;;5.68;4.35;;;10.30;99.90;;;;;;5035262;28;20208;-76
2021/05/06 10:11:15;;;;;;;6.53;4.68;;;10.60;99.90;;;;;;5045871;28;20192;-80
2021/05/06 10:13:45;;;;;;;8.93;5.03;;;10.60;99.90;;;;;;5043376;28;20218;-80
2021/05/06 10:16:14;;;;;;;4.68;4.28;;;10.40;99.90;;;;;;5043963;28;20208;-84
2021/05/06 10:18:43;;;;;;;6.00;5.25;;;10.30;99.90;;;;;;5054891;28;20212;-85
2021/05/06 10:21:12;;;;;;;4.25;3.63;;;10.30;99.90;;;;;;5018352;28;20219;-84
2021/05/06 10:23:40;;;;;;;4.50;4.13;;;10.40;99.90;;;;;;5023151;28;20211;-85
2021/05/06 10:26:06;;;;;;;4.13;3.30;;;10.50;99.90;;;;;;5030982;28;20224;-82
2021/05/06 10:28:35;;;;;;;6.63;4.40;;;10.90;99.90;;;;;;5003998;28;20204;-79
2021/05/06 10:31:04;;;;;;;5.00;2.97;;;11.00;99.90;;;;;;5039388;28;20200;-80
2021/05/06 10:33:34;;;;;;;4.88;2.72;;;11.00;99.90;;;;;;5058187;28;20191;-82
2021/05/06 10:36:03;;;;;;;3.17;2.90;;;10.80;99.90;;;;;;5061516;28;20216;-80
2021/05/06 10:38:31;;;;;;;6.85;3.75;;;10.90;99.90;;;;;;5045047;28;20309;-81
2021/05/06 10:41:29;;;;;;;4.43;4.05;;;11.50;99.90;;;;;;5040439;28;20199;-81
2021/05/06 10:43:57;;;;;;;7.10;4.28;;;11.80;99.90;;;;;;5038395;28;20256;-82
2021/05/06 10:47:03;;;;;;;5.95;2.95;;;12.20;99.90;;;;;;5059458;28;20219;-81
2021/05/06 10:49:51;;;;;;;3.70;2.90;;;12.30;99.90;;;;;;5047526;28;20297;-81
2021/05/06 10:52:18;;;;;;;4.28;2.70;;;11.80;99.90;;;;;;5043361;28;20227;-81
2021/05/06 10:54:48;;;;;;;5.35;2.63;;;11.70;99.90;;;;;;5042729;28;20200;-84
2021/05/06 10:57:30;;;;;;;2.97;2.75;;;12.00;99.90;;;;;;5075593;22;20230;-40
2021/05/06 10:59:58;;;;;;;3.97;3.00;;;12.40;99.90;;;;;;5067752;28;20668;-39
2021/05/06 11:02:49;;;;;;;3.00;2.70;;;12.50;99.90;;;;;;5051097;28;20229;-41
2021/05/06 11:05:19;;;;;;;2.35;2.10;;;12.70;99.90;;;;;;5036673;28;20250;-39
2021/05/06 11:08:19;;;;;;;3.40;3.10;;;12.60;99.90;;;;;;5051805;28;20187;-39
2021/05/06 11:11:13;;;;;;;4.07;3.03;;;12.40;99.90;;;;;;5053042;22;20257;-39
2021/05/06 11:14:09;;;;;;;3.83;3.00;;;12.40;99.90;;;;;;5030872;28;20196;-40
2021/05/06 11:16:38;;;;;;;3.58;3.00;;;11.80;99.90;;;;;;4965565;28;20303;-39
2021/05/06 11:19:05;;;;;;;3.33;2.97;;;11.50;99.90;;;;;;5027815;28;20595;-41
2021/05/06 11:21:41;;;;;;;4.40;3.78;;;11.40;99.90;;;;;;5030242;28;20234;-40
2021/05/06 11:24:18;;;;;;;3.00;2.67;;;11.40;99.90;;;;;;5030026;28;20234;-40
2021/05/06 11:27:15;;;;;;;4.00;2.75;;;11.80;99.90;;;;;;5021042;28;20197;-39
2021/05/06 11:29:43;;;;;;;4.53;2.60;;;12.50;99.90;;;;;;5010390;28;20781;-41
2021/05/06 11:32:22;;;;;;;4.70;3.13;;;12.80;99.90;;;;;;5032245;28;20275;-40
2021/05/06 11:34:53;;;;;;;3.20;2.78;;;12.30;99.90;;;;;;5029897;28;20283;-39
2021/05/06 11:37:23;;;;;;;3.78;3.45;;;11.70;99.90;;;;;;5029774;28;20254;-39
2021/05/06 11:40:06;;;;;;;2.97;2.67;;;11.80;99.90;;;;;;5040120;28;20458;-40
2021/05/06 11:42:40;;;;;;;4.35;2.95;;;11.50;99.90;;;;;;5025450;28;20265;-39
2021/05/06 11:45:17;;;;;;;4.22;2.60;;;11.90;99.90;;;;;;5030042;28;20276;-39
2021/05/06 11:47:44;;;;;;;2.58;2.38;;;12.40;99.90;;;;;;5030251;28;20219;-39
2021/05/06 11:50:15;;;;;;;5.13;2.70;;;12.70;99.90;;;;;;5014041;28;20306;-41
2021/05/06 11:52:43;;;;;;;2.70;2.42;;;12.80;99.90;;;;;;5033438;28;20659;-39
2021/05/06 11:55:27;;;;;;;2.78;2.58;;;13.20;99.90;;;;;;5015672;28;20674;-40
2021/05/06 11:57:54;;;;;;;2.53;2.33;;;13.70;99.90;;;;;;5033891;28;20574;-40
2021/05/06 12:00:25;;;;;;;4.15;2.97;;;14.00;99.90;;;;;;5033562;28;20224;-39
2021/05/06 12:02:59;;;;;;;3.15;2.30;;;13.70;99.90;;;;;;5033209;28;20216;-40
2021/05/06 12:06:06;;;;;;;2.38;2.17;;;14.00;99.90;;;;;;5033050;28;20200;-39
2021/05/06 12:08:43;;;;;;;3.05;2.22;;;13.70;99.90;;;;;;5026752;28;20671;-39
2021/05/06 12:11:11;;;;;;;4.25;2.20;;;13.60;99.90;;;;;;5032708;28;20219;-39
2021/05/06 12:13:38;;;;;;;2.35;2.15;;;13.60;99.90;;;;;;5032855;28;20196;-40
2021/05/06 12:16:14;;;;;;;5.00;3.55;;;14.40;99.90;;;;;;5033091;28;20282;-39
2021/05/06 12:18:41;;;;;;;3.03;2.67;;;15.00;99.90;;;;;;5032725;28;20651;-40
2021/05/06 12:21:08;;;;;;;5.63;2.67;;;14.80;99.90;;;;;;5032517;28;20599;-39
2021/05/06 12:23:47;;;;;;;2.45;2.25;;;13.40;99.90;;;;;;5032703;28;20652;-41
2021/05/06 12:26:17;;;;;;;3.10;2.80;;;13.30;99.90;;;;;;5014855;28;20200;-40
2021/05/06 12:28:44;;;;;;;3.90;2.20;;;13.30;99.90;;;;;;5032641;28;20586;-40
2021/05/06 12:31:11;;;;;;;2.47;2.28;;;13.30;99.90;;;;;;5032131;28;20212;-39
2021/05/06 12:33:37;;;;;;;3.67;2.80;;;13.60;99.90;;;;;;5032653;28;20227;-40
2021/05/06 12:36:05;;;;;;;2.58;2.20;;;13.70;99.90;;;;;;5033062;28;20246;-39
2021/05/06 12:38:32;;;;;;;2.70;2.28;;;13.90;99.90;;;;;;5032378;28;20211;-40
2021/05/06 12:41:05;;;;;;;4.07;3.05;;;14.10;99.90;;;;;;5032198;28;20223;-40
2021/05/06 12:43:34;;;;;;;2.75;2.55;;;14.90;99.90;;;;;;5032855;28;20307;-40
2021/05/06 12:46:08;;;;;;;3.08;2.75;;;14.50;99.90;;;;;;5032844;28;20203;-40
2021/05/06 12:48:45;;;;;;;3.97;2.38;;;13.70;99.90;;;;;;5032831;28;20196;-41
2021/05/06 12:51:14;;;;;;;2.03;1.85;;;13.30;99.90;;;;;;5032280;28;20251;-39
2021/05/06 12:54:15;;;;;;;2.70;2.50;;;13.20;99.90;;;;;;5032428;28;20218;-40
2021/05/06 12:56:43;;;;;;;2.60;2.40;;;13.60;99.90;;;;;;4955202;28;20198;-39
2021/05/06 12:59:28;;;;;;;2.78;2.08;;;14.00;99.90;;;;;;4970623;28;20732;-40
2021/05/06 13:02:08;;;;;;;2.13;1.92;;;14.60;99.90;;;;;;5006550;28;20297;-40
2021/05/06 13:04:46;;;;;;;3.08;2.13;;;15.20;99.90;;;;;;5032224;28;20683;-40
2021/05/06 13:07:14;;;;;;;4.50;2.20;;;15.40;99.90;;;;;;5031996;28;20203;-40
2021/05/06 13:09:44;;;;;;;2.63;2.40;;;14.70;99.90;;;;;;5031388;28;20224;-39
2021/05/06 13:12:14;;;;;;;3.97;3.38;;;14.10;99.90;;;;;;5031603;28;20280;-39
2021/05/06 13:14:50;;;;;;;2.60;2.28;;;13.50;99.90;;;;;;5032097;28;20675;-39
2021/05/06 13:17:30;;;;;;;2.85;2.30;;;13.50;99.90;;;;;;5031950;28;20265;-39
2021/05/06 13:19:58;;;;;;;2.30;1.92;;;14.80;99.90;;;;;;5031713;28;20215;-39
2021/05/06 13:22:26;;;;;;;4.47;2.20;;;15.80;99.90;;;;;;5013824;28;20223;-39
2021/05/06 13:24:53;;;;;;;2.60;2.40;;;16.00;99.90;;;;;;5031868;28;20200;-39
2021/05/06 13:27:22;;;;;;;4.15;2.92;;;15.90;99.90;;;;;;5031976;28;20282;-43
2021/05/06 13:29:56;;;;;;;2.67;2.47;;;15.00;99.90;;;;;;5030931;28;20302;-39
2021/05/06 13:32:33;;;;;;;3.20;2.53;;;15.00;99.90;;;;;;5031318;28;20199;-40
2021/05/06 13:35:01;;;;;;;2.38;2.05;;;15.50;99.90;;;;;;5031291;28;20226;-39
2021/05/06 13:37:35;;;;;;;2.30;2.10;;;15.90;99.90;;;;;;5031107;28;20200;-41
2021/05/06 13:40:03;;;;;;;2.45;2.00;;;17.20;99.90;;;;;;5031079;28;20250;-39
2021/05/06 13:42:30;;;;;;;2.38;1.60;;;17.20;99.90;;;;;;5031164;28;20239;-40
2021/05/06 13:44:58;;;;;;;5.55;4.32;;;17.10;99.90;;;;;;5031805;28;20204;-38
2021/05/06 13:47:26;;;;;;;6.80;5.70;;;16.90;99.90;;;;;;5031800;28;20196;-38
2021/05/06 13:49:53;;;;;;;3.45;2.38;;;16.80;99.90;;;;;;5030794;28;20316;-38
2021/05/06 13:52:23;;;;;;;3.90;2.47;;;17.00;99.90;;;;;;5031196;28;20638;-39
2021/05/06 13:54:50;;;;;;;3.20;1.60;;;16.40;99.90;;;;;;5031156;28;20721;-40
2021/05/06 13:57:17;;;;;;;3.10;2.22;;;15.00;99.90;;;;;;5030995;28;20199;-39
2021/05/06 13:59:44;;;;;;;3.22;2.30;;;14.10;99.90;;;;;;5030605;28;20319;-38
2021/05/06 14:02:12;;;;;;;2.13;2.03;;;13.80;99.90;;;;;;5030557;28;20204;-39
2021/05/06 14:04:38;;;;;;;2.92;2.65;;;13.90;99.90;;;;;;5030638;28;20677;-38
2021/05/06 14:07:05;;;;;;;2.38;2.13;;;13.80;99.90;;;;;;5013331;28;20200;-39
2021/05/06 14:09:32;;;;;;;3.35;2.50;;;14.10;99.90;;;;;;5011745;28;20483;-39
2021/05/06 14:11:59;;;;;;;2.88;2.28;;;13.70;99.90;;;;;;5030182;28;20192;-39
2021/05/06 14:14:25;;;;;;;3.38;2.83;;;14.00;99.90;;;;;;5030550;28;20697;-39
2021/05/06 14:16:53;;;;;;;4.15;2.55;;;14.40;99.90;;;;;;5030612;28;20200;-39
2021/05/06 14:19:20;;;;;;;2.72;2.20;;;15.00;99.90;;;;;;5024229;28;20216;-39
2021/05/06 14:21:48;;;;;;;2.58;1.90;;;15.60;99.90;;;;;;5027521;28;20196;-40
2021/05/06 14:24:15;;;;;;;2.35;2.15;;;15.50;99.90;;;;;;5030729;28;20283;-39
2021/05/06 14:26:44;;;;;;;2.30;2.10;;;15.40;99.90;;;;;;5030219;28;20206;-39
2021/05/06 14:29:11;;;;;;;3.53;2.17;;;15.70;99.90;;;;;;5029582;28;20199;-39
2021/05/06 14:31:39;;;;;;;4.38;3.60;;;15.90;99.90;;;;;;5029957;28;20686;-39
2021/05/06 14:34:07;;;;;;;3.20;2.13;;;16.80;99.90;;;;;;5030237;28;20223;-39
2021/05/06 14:36:33;;;;;;;4.40;2.53;;;16.90;99.90;;;;;;5030387;28;20279;-39
2021/05/06 14:39:02;;;;;;;2.22;1.80;;;16.80;99.90;;;;;;5029353;28;20192;-39
2021/05/06 14:41:29;;;;;;;2.65;1.77;;;17.50;99.90;;;;;;5012529;28;20279;-39
2021/05/06 14:43:57;;;;;;;2.10;1.92;;;17.60;99.90;;;;;;5030305;28;20302;-39
2021/05/06 14:46:24;;;;;;;1.73;1.63;;;17.20;99.90;;;;;;5030627;28;20231;-39
2021/05/06 14:48:51;;;;;;;1.98;1.23;;;17.20;99.90;;;;;;5030260;28;20203;-39
2021/05/06 14:51:18;;;;;;;2.13;1.92;;;17.90;99.90;;;;;;5029507;28;20314;-39
2021/05/06 14:53:45;;;;;;;1.92;1.75;;;18.60;99.90;;;;;;5026266;28;20254;-40
2021/05/06 14:56:12;;;;;;;2.40;1.77;;;17.80;99.90;;;;;;5029161;28;20202;-39
2021/05/06 14:58:38;;;;;;;2.92;1.90;;;17.60;99.90;;;;;;5025126;28;20198;-39
2021/05/06 15:01:05;;;;;;;2.42;2.05;;;17.70;99.90;;;;;;5029136;28;20239;-39
2021/05/06 15:03:32;;;;;;;2.72;2.53;;;17.40;99.90;;;;;;5028774;28;20302;-39
2021/05/06 15:05:58;;;;;;;2.10;1.90;;;17.30;99.90;;;;;;5025463;28;20253;-40
2021/05/06 15:08:26;;;;;;;2.28;2.13;;;17.00;99.90;;;;;;5029571;28;20211;-39
2021/05/06 15:10:53;;;;;;;1.98;1.80;;;16.20;99.90;;;;;;5032967;28;20331;-39
2021/05/06 15:13:19;;;;;;;3.58;2.08;;;15.60;99.90;;;;;;5032159;28;20486;-38
2021/05/06 15:15:46;;;;;;;4.28;2.40;;;14.80;99.90;;;;;;5038314;28;20264;-39
2021/05/06 15:18:12;;;;;;;3.15;2.70;;;15.10;99.90;;;;;;5031448;28;20233;-38
2021/05/06 15:20:39;;;;;;;2.97;2.78;;;14.70;99.90;;;;;;5035205;28;20236;-39
2021/05/06 15:23:06;;;;;;;2.50;2.38;;;14.30;99.90;;;;;;5037144;28;20815;-39
2021/05/06 15:25:33;;;;;;;2.97;2.70;;;15.00;99.90;;;;;;5045722;28;20199;-39